Time,TemperatureF,DewpointF,PressureIn,WindDirection,WindDirectionDegrees,WindSpeedMPH,WindSpeedGustMPH,Humidity,HourlyPrecipIn,Conditions,Clouds,dailyrainin,SoftwareType,DateUTC
2013-02-19 00:00:00,46.9,27.2,29.91,WNW,294,3.0,4.0,46,0.00,,,0.02,Wunderground v.1.13,2013-02-19 05:00:00,
2013-02-19 00:10:00,47.0,26.7,29.91,West,278,3.0,3.0,45,0.00,,,0.00,Wunderground v.1.13,2013-02-19 05:10:00,
2013-02-19 00:20:00,46.9,26.1,29.91,NNW,327,3.0,7.0,44,0.00,,,0.00,Wunderground v.1.13,2013-02-19 05:20:00,
2013-02-19 00:23:00,47.0,26.2,29.91,NW,315,2.0,9.0,44,0.00,,,-99.99,WeatherLink 6.0.2,2013-02-19 05:23:00,
2013-02-19 00:30:00,47.2,26.9,29.90,WNW,302,4.0,4.0,45,0.00,,,0.00,Wunderground v.1.13,2013-02-19 05:30:00,
2013-02-19 00:40:00,47.4,26.6,29.88,NW,305,3.0,4.0,44,0.00,,,0.00,Wunderground v.1.13,2013-02-19 05:40:00,
2013-02-19 00:50:00,47.7,26.8,29.86,NNW,342,4.0,4.0,44,0.00,,,0.00,Wunderground v.1.13,2013-02-19 05:50:00,
2013-02-19 01:00:00,47.9,26.5,29.86,West,275,2.0,2.0,43,0.00,,,0.00,Wunderground v.1.13,2013-02-19 06:00:00,
2013-02-19 01:10:00,47.9,26.5,29.85,West,280,2.0,3.0,43,0.00,,,0.00,Wunderground v.1.13,2013-02-19 06:10:00,
2013-02-19 01:20:00,48.0,26.0,29.85,West,272,2.0,6.0,42,0.00,,,0.00,Wunderground v.1.13,2013-02-19 06:20:00,
2013-02-19 01:30:00,48.3,26.8,29.84,WNW,301,3.0,3.0,43,0.00,,,0.00,Wunderground v.1.13,2013-02-19 06:30:00,
2013-02-19 01:40:00,48.3,27.4,29.84,WNW,295,1.0,2.0,44,0.00,,,0.00,Wunderground v.1.13,2013-02-19 06:40:00,
2013-02-19 01:50:00,48.4,26.9,29.84,WNW,290,2.0,3.0,43,0.00,,,0.00,Wunderground v.1.13,2013-02-19 06:50:00,
2013-02-19 02:00:00,48.4,27.5,29.83,WNW,301,2.0,2.0,44,0.00,,,0.00,Wunderground v.1.13,2013-02-19 07:00:00,
2013-02-19 02:10:00,48.8,26.7,29.83,NW,310,2.0,2.0,42,0.00,,,0.00,Wunderground v.1.13,2013-02-19 07:10:00,
2013-02-19 02:20:00,49.3,26.6,29.83,NW,317,1.0,1.0,41,0.00,,,0.00,Wunderground v.1.13,2013-02-19 07:20:00,
2013-02-19 02:30:00,49.7,26.9,29.83,NNW,335,2.0,2.0,41,0.00,,,0.00,Wunderground v.1.13,2013-02-19 07:30:00,
2013-02-19 02:40:00,49.5,27.9,29.82,NNW,341,1.0,1.0,43,0.00,,,0.00,Wunderground v.1.13,2013-02-19 07:40:00,
2013-02-19 02:50:00,49.5,28.5,29.81,WNW,293,3.0,4.0,44,0.00,,,0.00,Wunderground v.1.13,2013-02-19 07:50:00,
2013-02-19 03:00:00,49.7,26.9,29.81,NW,321,4.0,4.0,41,0.00,,,0.00,Wunderground v.1.13,2013-02-19 08:00:00,
2013-02-19 03:09:00,49.6,26.8,29.80,NNE,18,2.0,6.0,41,0.00,,,0.00,Wunderground v.1.13,2013-02-19 08:09:00,
2013-02-19 03:20:00,50.0,26.6,29.80,NNE,30,2.0,5.0,40,0.00,,,0.00,Wunderground v.1.13,2013-02-19 08:20:00,
2013-02-19 03:30:00,50.1,27.3,29.80,NNW,338,3.0,3.0,41,0.00,,,0.00,Wunderground v.1.13,2013-02-19 08:30:00,
2013-02-19 03:40:00,49.7,26.9,29.81,NNE,15,1.0,4.0,41,0.00,,,0.00,Wunderground v.1.13,2013-02-19 08:40:00,
2013-02-19 03:50:00,49.6,26.8,29.81,North,10,1.0,1.0,41,0.00,,,0.00,Wunderground v.1.13,2013-02-19 08:50:00,
2013-02-19 03:59:00,49.8,27.0,29.81,NW,313,2.0,5.0,41,0.00,,,0.00,Wunderground v.1.13,2013-02-19 08:59:00,
2013-02-19 04:00:00,49.7,26.9,29.81,NNW,337,2.0,6.0,41,0.00,,,-99.99,WeatherLink 6.0.2,2013-02-19 09:00:00,
2013-02-19 04:09:00,49.6,26.8,29.82,NNE,24,2.0,2.0,41,0.00,,,0.00,Wunderground v.1.13,2013-02-19 09:09:00,
2013-02-19 04:20:00,49.4,32.0,29.83,NNW,346,6.0,15.0,51,0.00,,,0.00,Wunderground v.1.13,2013-02-19 09:20:00,
2013-02-19 04:30:00,47.8,33.3,29.82,North,5,8.0,10.0,57,0.00,,,0.00,Wunderground v.1.13,2013-02-19 09:30:00,
2013-02-19 04:40:00,46.8,33.6,29.82,NNW,333,6.0,6.0,60,0.00,,,0.01,Wunderground v.1.13,2013-02-19 09:40:00,
2013-02-19 04:50:00,46.9,34.6,29.82,NW,306,2.0,4.0,62,0.00,,,0.01,Wunderground v.1.13,2013-02-19 09:50:00,
2013-02-19 05:00:00,47.2,32.3,29.81,NNW,327,6.0,15.0,56,0.00,,,0.01,Wunderground v.1.13,2013-02-19 10:00:00,
2013-02-19 05:10:00,47.4,31.6,29.81,North,360,6.0,8.0,54,0.00,,,0.01,Wunderground v.1.13,2013-02-19 10:10:00,
2013-02-19 05:20:00,47.2,32.3,29.81,NW,326,5.0,9.0,56,0.00,,,0.01,Wunderground v.1.13,2013-02-19 10:20:00,
2013-02-19 05:30:00,47.1,33.5,29.81,NW,304,6.0,6.0,59,0.00,,,0.01,Wunderground v.1.13,2013-02-19 10:30:00,
2013-02-19 05:40:00,46.2,33.9,29.81,NW,319,6.0,6.0,62,0.00,,,0.01,Wunderground v.1.13,2013-02-19 10:40:00,
2013-02-19 05:50:00,45.7,34.2,29.81,North,355,3.0,5.0,64,0.00,,,0.01,Wunderground v.1.13,2013-02-19 10:50:00,
2013-02-19 06:00:00,45.5,34.0,29.80,NNW,338,3.0,3.0,64,0.00,,,0.01,Wunderground v.1.13,2013-02-19 11:00:00,
2013-02-19 06:10:00,45.1,35.5,29.81,NNW,342,5.0,5.0,69,0.00,,,0.01,Wunderground v.1.13,2013-02-19 11:10:00,
2013-02-19 06:20:00,44.7,36.6,29.80,NNW,348,6.0,6.0,73,0.00,,,0.01,Wunderground v.1.13,2013-02-19 11:20:00,
2013-02-19 06:29:00,44.3,36.9,29.80,North,355,5.0,5.0,75,0.00,,,0.01,Wunderground v.1.13,2013-02-19 11:29:00,
2013-02-19 06:30:00,44.3,36.5,29.79,NNW,337,4.0,9.0,74,0.00,,,-99.99,WeatherLink 6.0.2,2013-02-19 11:30:00,
2013-02-19 06:40:00,43.9,36.5,29.80,NNW,329,4.0,6.0,75,0.00,,,0.01,Wunderground v.1.13,2013-02-19 11:40:00,
2013-02-19 06:50:00,43.6,35.9,29.80,NNW,347,3.0,3.0,74,0.00,,,0.01,Wunderground v.1.13,2013-02-19 11:50:00,
2013-02-19 07:00:00,43.3,36.2,29.80,NNE,25,3.0,4.0,76,0.00,,,0.01,Wunderground v.1.13,2013-02-19 12:00:00,
2013-02-19 07:10:00,43.2,36.5,29.79,NNW,340,3.0,5.0,77,0.00,,,0.01,Wunderground v.1.13,2013-02-19 12:10:00,
2013-02-19 07:19:00,43.2,36.5,29.78,NW,304,5.0,7.0,77,0.00,,,0.02,Wunderground v.1.13,2013-02-19 12:19:00,
2013-02-19 07:30:00,43.0,36.6,29.78,NNW,335,5.0,6.0,78,0.00,,,0.02,Wunderground v.1.13,2013-02-19 12:30:00,
2013-02-19 07:40:00,43.1,36.7,29.78,WNW,300,4.0,4.0,78,0.00,,,0.02,Wunderground v.1.13,2013-02-19 12:40:00,
2013-02-19 07:50:00,43.1,36.7,29.77,WNW,296,2.0,2.0,78,0.00,,,0.02,Wunderground v.1.13,2013-02-19 12:50:00,
2013-02-19 08:00:00,43.2,36.8,29.77,NNW,344,2.0,5.0,78,0.00,,,0.02,Wunderground v.1.13,2013-02-19 13:00:00,
2013-02-19 08:10:00,43.7,37.0,29.77,NNE,13,4.0,4.0,77,0.00,,,0.02,Wunderground v.1.13,2013-02-19 13:10:00,
2013-02-19 08:20:00,44.2,37.4,29.77,NNE,19,3.0,4.0,77,0.00,,,0.02,Wunderground v.1.13,2013-02-19 13:20:00,
2013-02-19 08:30:00,44.2,37.4,29.77,North,5,2.0,2.0,77,0.00,,,0.02,Wunderground v.1.13,2013-02-19 13:30:00,
2013-02-19 08:40:00,44.2,37.8,29.78,NW,323,2.0,2.0,78,0.00,,,0.02,Wunderground v.1.13,2013-02-19 13:40:00,
2013-02-19 08:50:00,44.1,38.0,29.77,NE,43,3.0,3.0,79,0.00,,,0.02,Wunderground v.1.13,2013-02-19 13:50:00,
2013-02-19 09:00:00,44.3,37.5,29.77,NNE,28,3.0,4.0,77,0.00,,,0.02,Wunderground v.1.13,2013-02-19 14:00:00,
2013-02-19 09:10:00,44.7,37.9,29.77,NW,314,4.0,6.0,77,0.00,,,0.02,Wunderground v.1.13,2013-02-19 14:10:00,
2013-02-19 09:19:00,44.8,37.7,29.77,NNW,332,5.0,5.0,76,0.00,,,0.03,Wunderground v.1.13,2013-02-19 14:19:00,
2013-02-19 09:30:00,44.8,38.0,29.77,NW,315,4.0,4.0,77,0.00,,,0.03,Wunderground v.1.13,2013-02-19 14:30:00,
2013-02-19 09:40:00,44.8,38.4,29.77,NW,325,4.0,5.0,78,0.00,,,0.03,Wunderground v.1.13,2013-02-19 14:40:00,
2013-02-19 09:50:00,44.7,38.9,29.77,ENE,65,4.0,5.0,80,0.00,,,0.03,Wunderground v.1.13,2013-02-19 14:50:00,
2013-02-19 09:59:00,44.7,38.3,29.76,North,5,3.0,3.0,78,0.00,,,0.03,Wunderground v.1.13,2013-02-19 14:59:00,
2013-02-19 10:00:00,44.7,38.6,29.77,NNW,337,3.0,10.0,79,0.01,,,-99.99,WeatherLink 6.0.2,2013-02-19 15:00:00,
2013-02-19 10:10:00,44.7,38.9,29.77,North,355,2.0,5.0,80,0.00,,,0.03,Wunderground v.1.13,2013-02-19 15:10:00,
2013-02-19 10:19:00,44.9,38.8,29.76,NE,34,4.0,4.0,79,0.00,,,0.03,Wunderground v.1.13,2013-02-19 15:19:00,
2013-02-19 10:30:00,45.0,38.9,29.77,NNW,336,3.0,6.0,79,0.00,,,0.03,Wunderground v.1.13,2013-02-19 15:30:00,
2013-02-19 10:40:00,45.0,39.2,29.76,North,355,4.0,4.0,80,0.00,,,0.03,Wunderground v.1.13,2013-02-19 15:40:00,
2013-02-19 10:50:00,44.9,39.1,29.77,East,90,3.0,3.0,80,0.00,,,0.03,Wunderground v.1.13,2013-02-19 15:50:00,
2013-02-19 11:00:00,45.1,39.0,29.76,NNW,329,3.0,3.0,79,0.00,,,0.03,Wunderground v.1.13,2013-02-19 16:00:00,
2013-02-19 11:10:00,45.5,39.4,29.76,NE,40,3.0,3.0,79,0.00,,,0.03,Wunderground v.1.13,2013-02-19 16:10:00,
2013-02-19 11:19:00,45.7,40.2,29.76,North,355,3.0,3.0,81,0.00,,,0.03,Wunderground v.1.13,2013-02-19 16:19:00,
2013-02-19 11:30:00,45.4,40.2,29.76,ENE,68,3.0,4.0,82,0.00,,,0.03,Wunderground v.1.13,2013-02-19 16:30:00,
2013-02-19 11:40:00,45.4,39.9,29.75,North,355,3.0,4.0,81,0.00,,,0.03,Wunderground v.1.13,2013-02-19 16:40:00,
2013-02-19 11:50:00,45.4,41.2,29.75,East,91,2.0,3.0,85,0.00,,,0.03,Wunderground v.1.13,2013-02-19 16:50:00,
2013-02-19 12:00:00,45.9,41.3,29.75,North,355,2.0,2.0,84,0.00,,,0.03,Wunderground v.1.13,2013-02-19 17:00:00,
2013-02-19 12:10:00,46.2,40.7,29.73,NE,49,3.0,3.0,81,0.00,,,0.03,Wunderground v.1.13,2013-02-19 17:10:00,
2013-02-19 12:20:00,46.3,40.1,29.73,North,355,3.0,3.0,79,0.00,,,0.03,Wunderground v.1.13,2013-02-19 17:20:00,
2013-02-19 12:29:00,46.0,40.8,29.73,ESE,103,2.0,6.0,82,0.00,,,0.03,Wunderground v.1.13,2013-02-19 17:29:00,
2013-02-19 12:30:00,46.0,41.7,29.74,ENE,67,2.0,12.0,85,0.01,,,-99.99,WeatherLink 6.0.2,2013-02-19 17:30:00,
2013-02-19 12:40:00,45.2,41.9,29.74,East,92,3.0,6.0,88,0.00,,,0.04,Wunderground v.1.13,2013-02-19 17:40:00,
2013-02-19 12:50:00,44.6,40.7,29.74,SE,138,4.0,13.0,86,0.00,,,0.04,Wunderground v.1.13,2013-02-19 17:50:00,
2013-02-19 13:00:00,42.3,38.4,29.75,ESE,120,10.0,12.0,86,0.00,,,0.04,Wunderground v.1.13,2013-02-19 18:00:00,
2013-02-19 13:10:00,42.2,38.3,29.76,East,94,6.0,6.0,86,0.00,,,0.04,Wunderground v.1.13,2013-02-19 18:10:00,
2013-02-19 13:20:00,42.0,38.1,29.76,NE,43,4.0,4.0,86,0.00,,,0.04,Wunderground v.1.13,2013-02-19 18:20:00,
2013-02-19 13:30:00,42.3,37.8,29.76,NE,43,3.0,3.0,84,0.00,,,0.04,Wunderground v.1.13,2013-02-19 18:30:00,
2013-02-19 13:40:00,42.9,37.8,29.76,ENE,67,3.0,9.0,82,0.00,,,0.04,Wunderground v.1.13,2013-02-19 18:40:00,
2013-02-19 13:50:00,43.4,37.6,29.76,NE,53,4.0,4.0,80,0.00,,,0.04,Wunderground v.1.13,2013-02-19 18:50:00,
2013-02-19 13:59:00,43.7,37.0,29.77,ESE,106,4.0,4.0,77,0.00,,,0.04,Wunderground v.1.13,2013-02-19 18:59:00,
2013-02-19 14:00:00,43.7,37.0,29.76,East,90,4.0,15.0,77,0.00,,,-99.99,WeatherLink 6.0.2,2013-02-19 19:00:00,
2013-02-19 14:10:00,44.3,37.2,29.76,NNE,29,4.0,4.0,76,0.00,,,0.04,Wunderground v.1.13,2013-02-19 19:10:00,
2013-02-19 14:19:00,44.4,36.3,29.76,North,355,2.0,5.0,73,0.00,,,0.04,Wunderground v.1.13,2013-02-19 19:19:00,
2013-02-19 14:29:00,44.7,35.1,29.76,NE,44,4.0,4.0,69,0.00,,,0.04,Wunderground v.1.13,2013-02-19 19:29:00,
2013-02-19 14:30:00,44.7,35.9,29.75,East,90,3.0,14.0,71,0.00,,,-99.99,WeatherLink 6.0.2,2013-02-19 19:30:00,
2013-02-19 14:40:00,45.5,35.5,29.75,East,89,3.0,3.0,68,0.00,,,0.04,Wunderground v.1.13,2013-02-19 19:40:00,
2013-02-19 14:50:00,45.4,32.7,29.75,WSW,254,4.0,4.0,61,0.00,,,0.04,Wunderground v.1.13,2013-02-19 19:50:00,
2013-02-19 15:00:00,46.0,33.3,29.75,ESE,113,3.0,4.0,61,0.00,,,0.04,Wunderground v.1.13,2013-02-19 20:00:00,
2013-02-19 15:10:00,46.4,33.3,29.75,East,92,4.0,4.0,60,0.00,,,0.04,Wunderground v.1.13,2013-02-19 20:10:00,
2013-02-19 15:20:00,45.3,32.2,29.76,ENE,69,5.0,5.0,60,0.00,,,0.04,Wunderground v.1.13,2013-02-19 20:20:00,
2013-02-19 15:30:00,44.5,31.5,29.76,ESE,121,4.0,5.0,60,0.00,,,0.04,Wunderground v.1.13,2013-02-19 20:30:00,
2013-02-19 15:39:00,46.4,32.0,29.76,ENE,69,3.0,3.0,57,0.00,,,0.04,Wunderground v.1.13,2013-02-19 20:39:00,
2013-02-19 15:50:00,46.3,30.5,29.76,East,96,4.0,4.0,54,0.00,,,0.04,Wunderground v.1.13,2013-02-19 20:50:00,
2013-02-19 16:00:00,44.4,30.1,29.77,ESE,107,6.0,6.0,57,0.00,,,0.04,Wunderground v.1.13,2013-02-19 21:00:00,
2013-02-19 16:09:00,44.2,30.3,29.78,North,360,6.0,6.0,58,0.00,,,0.04,Wunderground v.1.13,2013-02-19 21:09:00,
2013-02-19 16:20:00,44.5,28.4,29.79,East,87,6.0,6.0,53,0.00,,,0.04,Wunderground v.1.13,2013-02-19 21:20:00,
2013-02-19 16:30:00,44.7,28.1,29.79,ENE,71,3.0,3.0,52,0.00,,,0.04,Wunderground v.1.13,2013-02-19 21:30:00,
2013-02-19 16:40:00,44.6,26.1,29.80,ESE,112,4.0,6.0,48,0.00,,,0.04,Wunderground v.1.13,2013-02-19 21:40:00,
2013-02-19 16:50:00,43.9,25.5,29.81,ENE,67,5.0,5.0,48,0.00,,,0.04,Wunderground v.1.13,2013-02-19 21:50:00,
2013-02-19 17:00:00,42.9,26.0,29.82,NE,51,7.0,7.0,51,0.00,,,0.04,Wunderground v.1.13,2013-02-19 22:00:00,
2013-02-19 17:10:00,42.6,26.6,29.82,East,90,6.0,6.0,53,0.00,,,0.04,Wunderground v.1.13,2013-02-19 22:10:00,
2013-02-19 17:20:00,42.1,26.2,29.83,ESE,117,5.0,5.0,53,0.00,,,0.04,Wunderground v.1.13,2013-02-19 22:20:00,
2013-02-19 17:29:00,41.5,26.1,29.84,ESE,107,5.0,5.0,54,0.00,,,0.04,Wunderground v.1.13,2013-02-19 22:29:00,
2013-02-19 17:30:00,41.6,26.6,29.84,ESE,112,5.0,11.0,55,0.00,,,-99.99,WeatherLink 6.0.2,2013-02-19 22:30:00,
2013-02-19 17:40:00,41.4,25.5,29.84,ESE,110,4.0,5.0,53,0.00,,,0.04,Wunderground v.1.13,2013-02-19 22:40:00,
2013-02-19 17:49:00,40.9,25.5,29.85,NE,46,4.0,4.0,54,0.00,,,0.04,Wunderground v.1.13,2013-02-19 22:49:00,
2013-02-19 18:00:00,40.4,25.1,29.86,ESE,107,4.0,4.0,54,0.00,,,0.04,Wunderground v.1.13,2013-02-19 23:00:00,
2013-02-19 18:10:00,39.8,24.9,29.87,SE,124,5.0,10.0,55,0.00,,,0.04,Wunderground v.1.13,2013-02-19 23:10:00,
2013-02-19 18:20:00,39.6,25.2,29.87,NE,54,5.0,5.0,56,0.00,,,0.04,Wunderground v.1.13,2013-02-19 23:20:00,
2013-02-19 18:30:00,39.1,24.7,29.88,ESE,115,5.0,6.0,56,0.00,,,0.04,Wunderground v.1.13,2013-02-19 23:30:00,
2013-02-19 18:40:00,38.7,23.9,29.89,East,82,5.0,5.0,55,0.00,,,0.04,Wunderground v.1.13,2013-02-19 23:40:00,
2013-02-19 18:49:00,38.0,23.7,29.90,ESE,117,5.0,9.0,56,0.00,,,0.04,Wunderground v.1.13,2013-02-19 23:49:00,
2013-02-19 19:00:00,38.0,22.8,29.91,ESE,121,6.0,7.0,54,0.00,,,0.04,Wunderground v.1.13,2013-02-20 00:00:00,
2013-02-19 19:10:00,37.7,23.0,29.91,East,86,5.0,5.0,55,0.00,,,0.04,Wunderground v.1.13,2013-02-20 00:10:00,
2013-02-19 19:19:00,37.5,23.2,29.91,ESE,109,5.0,5.0,56,0.00,,,0.04,Wunderground v.1.13,2013-02-20 00:19:00,
2013-02-19 19:30:00,37.4,23.5,29.91,ENE,65,6.0,6.0,57,0.00,,,0.04,Wunderground v.1.13,2013-02-20 00:30:00,
2013-02-19 19:40:00,37.0,22.7,29.92,East,98,4.0,4.0,56,0.00,,,0.04,Wunderground v.1.13,2013-02-20 00:40:00,
2013-02-19 19:49:00,37.0,22.7,29.93,SE,126,3.0,4.0,56,0.00,,,0.04,Wunderground v.1.13,2013-02-20 00:49:00,
2013-02-19 20:00:00,37.3,23.4,29.93,East,88,4.0,4.0,57,0.00,,,0.04,Wunderground v.1.13,2013-02-20 01:00:00,
2013-02-19 20:10:00,36.8,23.0,29.93,ESE,104,3.0,3.0,57,0.00,,,0.04,Wunderground v.1.13,2013-02-20 01:10:00,
2013-02-19 20:19:00,36.8,23.0,29.94,NE,51,4.0,4.0,57,0.00,,,0.04,Wunderground v.1.13,2013-02-20 01:19:00,
2013-02-19 20:30:00,36.6,22.4,29.93,ENE,72,2.0,2.0,56,0.00,,,0.04,Wunderground v.1.13,2013-02-20 01:30:00,
2013-02-19 20:40:00,36.4,23.0,29.93,ESE,104,2.0,3.0,58,0.00,,,0.04,Wunderground v.1.13,2013-02-20 01:40:00,
2013-02-19 20:50:00,36.1,23.5,29.94,East,89,2.0,2.0,60,0.00,,,0.04,Wunderground v.1.13,2013-02-20 01:50:00,
2013-02-19 21:00:00,36.0,22.2,29.94,ESE,115,2.0,3.0,57,0.00,,,0.04,Wunderground v.1.13,2013-02-20 02:00:00,
2013-02-19 21:10:00,36.3,22.9,29.94,ESE,104,4.0,4.0,58,0.00,,,0.04,Wunderground v.1.13,2013-02-20 02:10:00,
2013-02-19 21:20:00,36.2,22.8,29.94,ESE,120,3.0,5.0,58,0.00,,,0.04,Wunderground v.1.13,2013-02-20 02:20:00,
2013-02-19 21:30:00,36.0,22.6,29.95,East,100,5.0,5.0,58,0.00,,,0.04,Wunderground v.1.13,2013-02-20 02:30:00,
2013-02-19 21:39:00,35.6,22.3,29.95,ESE,106,5.0,5.0,58,0.00,,,0.04,Wunderground v.1.13,2013-02-20 02:39:00,
2013-02-19 21:50:00,35.2,21.9,29.95,ESE,111,4.0,14.0,58,0.00,,,0.04,Wunderground v.1.13,2013-02-20 02:50:00,
2013-02-19 22:00:00,35.0,21.7,29.96,ENE,73,6.0,6.0,58,0.00,,,0.04,Wunderground v.1.13,2013-02-20 03:00:00,
2013-02-19 22:10:00,34.5,22.0,29.96,ESE,111,4.0,5.0,60,0.00,,,0.04,Wunderground v.1.13,2013-02-20 03:10:00,
2013-02-19 22:20:00,33.9,21.5,29.97,East,100,3.0,3.0,60,0.00,,,0.04,Wunderground v.1.13,2013-02-20 03:20:00,
2013-02-19 22:29:00,33.5,21.9,29.97,ESE,105,5.0,6.0,62,0.00,,,0.04,Wunderground v.1.13,2013-02-20 03:29:00,
2013-02-19 22:30:00,33.5,21.5,29.97,ESE,112,5.0,12.0,61,0.00,,,-99.99,WeatherLink 6.0.2,2013-02-20 03:30:00,
2013-02-19 22:40:00,33.2,21.2,29.97,NE,44,6.0,6.0,61,0.00,,,0.04,Wunderground v.1.13,2013-02-20 03:40:00,
2013-02-19 22:50:00,32.9,21.3,29.97,East,101,3.0,3.0,62,0.00,,,0.04,Wunderground v.1.13,2013-02-20 03:50:00,
2013-02-19 23:00:00,32.5,21.7,29.98,East,97,3.0,3.0,64,0.00,,,0.04,Wunderground v.1.13,2013-02-20 04:00:00,
2013-02-19 23:10:00,32.0,21.6,29.98,ESE,115,5.0,11.0,65,0.00,,,0.04,Wunderground v.1.13,2013-02-20 04:10:00,
2013-02-19 23:20:00,31.5,21.1,29.98,ESE,106,6.0,6.0,65,0.00,,,0.04,Wunderground v.1.13,2013-02-20 04:20:00,
2013-02-19 23:29:00,31.3,21.3,29.98,NE,43,6.0,6.0,66,0.00,,,0.04,Wunderground v.1.13,2013-02-20 04:29:00,
2013-02-19 23:30:00,31.3,21.3,29.99,ESE,112,5.0,14.0,66,0.00,,,-99.99,WeatherLink 6.0.2,2013-02-20 04:30:00,
2013-02-19 23:40:00,31.1,21.4,29.99,ENE,70,5.0,5.0,67,0.00,,,0.04,Wunderground v.1.13,2013-02-20 04:40:00,
2013-02-19 23:50:00,31.0,21.3,29.99,ESE,116,6.0,16.0,67,0.00,,,0.04,Wunderground v.1.13,2013-02-20 04:50:00,